AFR158M LFPG-KDFW
Flight info
| Callsign | AFR158M |
|---|---|
| Flight time | N/A |
| Altitude | 36000 |
| Route | ATREX DCT VESAN DCT RATUK DCT SOVAT L613 SANDY DCT OKSAW DCT TEWXI DCT VATRY DCT DIGAN DCT DOGAL/M085F380 DCT 54N020W 54N030W 5330N04000W 5230N05000W DCT SAXAN/N0487F380 DCT SHAIK/N0495F400 DCT MT DCT TVC DCT BAE DCT BDF DCT WELTS DCT SGF DCT RZC DCT FSM DCT RRNET SEEVR4 |
| Aircraft | A359/H-SABDE1E2E3GHIJ3J4J5M1OP2P3RWXYZ/LB1D1 |
Departure
| Time | N/A |
|---|---|
| Airport | Charles de Gaulle International Airport (LFPG) |
Arrival
| Time | 2026-05-03 23:18 |
|---|---|
| Airport | Dallas Fort Worth International Airport (KDFW) |
| Time | Latitude | Longitude | Altitude | Speed | Heading |
|---|---|---|---|---|---|
| 2026-05-03 22:32 | 36.30119 | -94.08329 | 40010 ft | 464 kts | 217° |
| 2026-05-03 22:33 | 36.24238 | -94.11789 | 40017 ft | 476 kts | 205° |
| 2026-05-03 22:33 | 36.17674 | -94.13538 | 40007 ft | 486 kts | 196° |
| 2026-05-03 22:34 | 36.10949 | -94.14702 | 40014 ft | 488 kts | 195° |
| 2026-05-03 22:34 | 36.04211 | -94.15797 | 40019 ft | 488 kts | 195° |
| 2026-05-03 22:35 | 35.97503 | -94.16937 | 40015 ft | 488 kts | 195° |
| 2026-05-03 22:35 | 35.90779 | -94.18112 | 40010 ft | 488 kts | 195° |
| 2026-05-03 22:36 | 35.85233 | -94.19087 | 40013 ft | 488 kts | 195° |
| 2026-05-03 22:36 | 35.81348 | -94.19769 | 40010 ft | 487 kts | 195° |
| 2026-05-03 22:37 | 35.74179 | -94.21025 | 40018 ft | 487 kts | 195° |
| 2026-05-03 22:37 | 35.68597 | -94.21999 | 40020 ft | 487 kts | 195° |
| 2026-05-03 22:38 | 35.61837 | -94.23179 | 40012 ft | 487 kts | 195° |
| 2026-05-03 22:38 | 35.55114 | -94.24348 | 40006 ft | 488 kts | 195° |
| 2026-05-03 22:39 | 35.48438 | -94.25506 | 40001 ft | 487 kts | 195° |
| 2026-05-03 22:39 | 35.41818 | -94.27023 | 39975 ft | 477 kts | 205° |
| 2026-05-03 22:40 | 35.35991 | -94.30484 | 40000 ft | 457 kts | 223° |
| 2026-05-03 22:40 | 35.31181 | -94.35451 | 39998 ft | 451 kts | 229° |
| 2026-05-03 22:41 | 35.26489 | -94.40565 | 39997 ft | 452 kts | 229° |
| 2026-05-03 22:41 | 35.21781 | -94.45672 | 40001 ft | 452 kts | 229° |
| 2026-05-03 22:42 | 35.17072 | -94.50767 | 40003 ft | 452 kts | 229° |
| 2026-05-03 22:42 | 35.12363 | -94.55853 | 40007 ft | 452 kts | 229° |
| 2026-05-03 22:43 | 35.07643 | -94.60941 | 40006 ft | 452 kts | 229° |
| 2026-05-03 22:43 | 35.02928 | -94.66016 | 40008 ft | 452 kts | 229° |
| 2026-05-03 22:44 | 34.98208 | -94.71088 | 40007 ft | 452 kts | 229° |
| 2026-05-03 22:44 | 34.93518 | -94.76120 | 40017 ft | 452 kts | 229° |
| 2026-05-03 22:45 | 34.88795 | -94.81178 | 39997 ft | 452 kts | 229° |
| 2026-05-03 22:45 | 34.84070 | -94.86232 | 40017 ft | 452 kts | 229° |
| 2026-05-03 22:46 | 34.79315 | -94.91247 | 40022 ft | 454 kts | 228° |
| 2026-05-03 22:46 | 34.74465 | -94.96165 | 40008 ft | 453 kts | 229° |
| 2026-05-03 22:47 | 34.69625 | -95.01087 | 40021 ft | 453 kts | 229° |
| 2026-05-03 22:47 | 34.64796 | -95.06003 | 40023 ft | 453 kts | 229° |
| 2026-05-03 22:48 | 34.59958 | -95.10923 | 40022 ft | 453 kts | 229° |
| 2026-05-03 22:48 | 34.57536 | -95.13384 | 39888 ft | 454 kts | 229° |
| 2026-05-03 22:48 | 34.55144 | -95.15815 | 39658 ft | 455 kts | 229° |
| 2026-05-03 22:48 | 34.52713 | -95.18284 | 39417 ft | 457 kts | 229° |
| 2026-05-03 22:49 | 34.50274 | -95.20757 | 39199 ft | 457 kts | 229° |
| 2026-05-03 22:49 | 34.47840 | -95.23219 | 38789 ft | 453 kts | 229° |
| 2026-05-03 22:49 | 34.45427 | -95.25667 | 38143 ft | 453 kts | 229° |
| 2026-05-03 22:49 | 34.43006 | -95.28112 | 37514 ft | 452 kts | 229° |
| 2026-05-03 22:50 | 34.40589 | -95.30543 | 36890 ft | 451 kts | 228° |
| 2026-05-03 22:50 | 34.38178 | -95.32969 | 36269 ft | 450 kts | 228° |
| 2026-05-03 22:50 | 34.35764 | -95.35397 | 35580 ft | 450 kts | 228° |
| 2026-05-03 22:50 | 34.33359 | -95.37813 | 35075 ft | 448 kts | 228° |
| 2026-05-03 22:51 | 34.30973 | -95.40208 | 34590 ft | 445 kts | 228° |
| 2026-05-03 22:51 | 34.28594 | -95.42595 | 34086 ft | 442 kts | 227° |
| 2026-05-03 22:51 | 34.26231 | -95.44966 | 33543 ft | 440 kts | 227° |
| 2026-05-03 22:51 | 34.23886 | -95.47316 | 33042 ft | 437 kts | 227° |
| 2026-05-03 22:52 | 34.21558 | -95.49647 | 32527 ft | 433 kts | 227° |
| 2026-05-03 22:52 | 34.19247 | -95.51966 | 32033 ft | 430 kts | 227° |
| 2026-05-03 22:52 | 34.16952 | -95.54258 | 31551 ft | 427 kts | 227° |
| 2026-05-03 22:52 | 34.14670 | -95.56532 | 31066 ft | 423 kts | 227° |
| 2026-05-03 22:53 | 34.12409 | -95.58785 | 30586 ft | 420 kts | 227° |
| 2026-05-03 22:53 | 34.10171 | -95.61016 | 30102 ft | 417 kts | 226° |
| 2026-05-03 22:53 | 34.07977 | -95.63204 | 29576 ft | 414 kts | 227° |
| 2026-05-03 22:53 | 34.05766 | -95.65405 | 29107 ft | 409 kts | 226° |
| 2026-05-03 22:54 | 34.03579 | -95.67573 | 28628 ft | 405 kts | 226° |
| 2026-05-03 22:54 | 34.01439 | -95.69694 | 28164 ft | 401 kts | 226° |
| 2026-05-03 22:54 | 33.99294 | -95.71820 | 27696 ft | 398 kts | 226° |
| 2026-05-03 22:54 | 33.97164 | -95.73931 | 27237 ft | 395 kts | 226° |
| 2026-05-03 22:55 | 33.95056 | -95.76026 | 26758 ft | 392 kts | 226° |
| 2026-05-03 22:55 | 33.92967 | -95.78120 | 26305 ft | 389 kts | 226° |
| 2026-05-03 22:55 | 33.90890 | -95.80202 | 25857 ft | 387 kts | 226° |
| 2026-05-03 22:55 | 33.88824 | -95.82270 | 25373 ft | 385 kts | 226° |
| 2026-05-03 22:56 | 33.86763 | -95.84331 | 24916 ft | 384 kts | 225° |
| 2026-05-03 22:56 | 33.84713 | -95.86380 | 24445 ft | 383 kts | 225° |
| 2026-05-03 22:56 | 33.82668 | -95.88425 | 23970 ft | 382 kts | 225° |
| 2026-05-03 22:56 | 33.80619 | -95.90461 | 23452 ft | 382 kts | 225° |
| 2026-05-03 22:57 | 33.78569 | -95.92480 | 22937 ft | 379 kts | 224° |
| 2026-05-03 22:57 | 33.76538 | -95.94478 | 22471 ft | 377 kts | 224° |
| 2026-05-03 22:57 | 33.74517 | -95.96467 | 21993 ft | 374 kts | 224° |
| 2026-05-03 22:57 | 33.72502 | -95.98452 | 21477 ft | 373 kts | 224° |
| 2026-05-03 22:58 | 33.70524 | -96.00401 | 20983 ft | 372 kts | 224° |
| 2026-05-03 22:58 | 33.68527 | -96.02367 | 20498 ft | 370 kts | 223° |
| 2026-05-03 22:58 | 33.66541 | -96.04320 | 20021 ft | 369 kts | 223° |
| 2026-05-03 22:58 | 33.64560 | -96.06269 | 19549 ft | 368 kts | 223° |
| 2026-05-03 22:59 | 33.62581 | -96.08214 | 19077 ft | 367 kts | 223° |
| 2026-05-03 22:59 | 33.60632 | -96.10129 | 18591 ft | 366 kts | 223° |
| 2026-05-03 22:59 | 33.58660 | -96.12065 | 18076 ft | 365 kts | 222° |
| 2026-05-03 22:59 | 33.56697 | -96.13990 | 17572 ft | 362 kts | 222° |
| 2026-05-03 23:00 | 33.54760 | -96.15888 | 17089 ft | 359 kts | 221° |
| 2026-05-03 23:00 | 33.52832 | -96.17777 | 16625 ft | 356 kts | 222° |
| 2026-05-03 23:00 | 33.50919 | -96.19649 | 16159 ft | 353 kts | 221° |
| 2026-05-03 23:00 | 33.49024 | -96.21505 | 15677 ft | 351 kts | 221° |
| 2026-05-03 23:01 | 33.47149 | -96.23339 | 15383 ft | 342 kts | 221° |
| 2026-05-03 23:01 | 33.45343 | -96.25113 | 15155 ft | 332 kts | 222° |
| 2026-05-03 23:01 | 33.43712 | -96.27046 | 14694 ft | 328 kts | 230° |
| 2026-05-03 23:01 | 33.42217 | -96.29094 | 14279 ft | 326 kts | 230° |
| 2026-05-03 23:02 | 33.40740 | -96.31147 | 13858 ft | 324 kts | 230° |
| 2026-05-03 23:02 | 33.39269 | -96.33184 | 13405 ft | 321 kts | 230° |
| 2026-05-03 23:02 | 33.37812 | -96.35194 | 12973 ft | 318 kts | 230° |
| 2026-05-03 23:02 | 33.36365 | -96.37188 | 12563 ft | 315 kts | 230° |
| 2026-05-03 23:03 | 33.34940 | -96.39151 | 12233 ft | 308 kts | 230° |
| 2026-05-03 23:03 | 33.33586 | -96.41023 | 12090 ft | 296 kts | 230° |
| 2026-05-03 23:03 | 33.32487 | -96.43041 | 11878 ft | 286 kts | 246° |
| 2026-05-03 23:03 | 33.31785 | -96.45255 | 11528 ft | 283 kts | 252° |
| 2026-05-03 23:04 | 33.31171 | -96.47489 | 11176 ft | 282 kts | 251° |
| 2026-05-03 23:04 | 33.30567 | -96.49692 | 10973 ft | 274 kts | 251° |
| 2026-05-03 23:04 | 33.29976 | -96.51828 | 10717 ft | 269 kts | 251° |
| 2026-05-03 23:04 | 33.29388 | -96.53941 | 10391 ft | 267 kts | 251° |
| 2026-05-03 23:05 | 33.28844 | -96.56060 | 10057 ft | 267 kts | 257° |
| 2026-05-03 23:05 | 33.28614 | -96.58261 | 9707 ft | 267 kts | 265° |
| 2026-05-03 23:05 | 33.28511 | -96.60487 | 9381 ft | 271 kts | 266° |
| 2026-05-03 23:05 | 33.28420 | -96.62733 | 9055 ft | 269 kts | 265° |
| 2026-05-03 23:06 | 33.28325 | -96.64951 | 8735 ft | 265 kts | 265° |
| 2026-05-03 23:06 | 33.28226 | -96.67152 | 8420 ft | 265 kts | 264° |
| 2026-05-03 23:06 | 33.28127 | -96.69343 | 8113 ft | 262 kts | 264° |
| 2026-05-03 23:06 | 33.28030 | -96.71454 | 7912 ft | 254 kts | 264° |
| 2026-05-03 23:07 | 33.27934 | -96.73530 | 7658 ft | 249 kts | 264° |
| 2026-05-03 23:07 | 33.27838 | -96.75598 | 7411 ft | 249 kts | 264° |
| 2026-05-03 23:07 | 33.27739 | -96.77656 | 7006 ft | 248 kts | 264° |
| 2026-05-03 23:07 | 33.27642 | -96.79713 | 6630 ft | 248 kts | 263° |
| 2026-05-03 23:08 | 33.27546 | -96.81761 | 6274 ft | 246 kts | 263° |
| 2026-05-03 23:08 | 33.27280 | -96.83766 | 5769 ft | 247 kts | 251° |
| 2026-05-03 23:08 | 33.26701 | -96.85738 | 5507 ft | 257 kts | 246° |
| 2026-05-03 23:08 | 33.26046 | -96.87702 | 5400 ft | 249 kts | 245° |
| 2026-05-03 23:09 | 33.25411 | -96.89563 | 5284 ft | 237 kts | 245° |
| 2026-05-03 23:09 | 33.24783 | -96.91378 | 5155 ft | 237 kts | 244° |
| 2026-05-03 23:09 | 33.24149 | -96.93190 | 5029 ft | 236 kts | 245° |
| 2026-05-03 23:09 | 33.23516 | -96.94996 | 4904 ft | 236 kts | 244° |
| 2026-05-03 23:10 | 33.22883 | -96.96796 | 4798 ft | 234 kts | 244° |
| 2026-05-03 23:10 | 33.22252 | -96.98586 | 4644 ft | 234 kts | 244° |
| 2026-05-03 23:10 | 33.21625 | -97.00362 | 4533 ft | 235 kts | 244° |
| 2026-05-03 23:10 | 33.20984 | -97.02154 | 4407 ft | 234 kts | 243° |
| 2026-05-03 23:11 | 33.20125 | -97.03781 | 4274 ft | 231 kts | 226° |
| 2026-05-03 23:11 | 33.18866 | -97.04906 | 4157 ft | 229 kts | 204° |
| 2026-05-03 23:11 | 33.17326 | -97.05328 | 4033 ft | 229 kts | 185° |
| 2026-05-03 23:11 | 33.15728 | -97.05366 | 3918 ft | 229 kts | 180° |
| 2026-05-03 23:12 | 33.14176 | -97.05332 | 3888 ft | 216 kts | 182° |
| 2026-05-03 23:12 | 33.12710 | -97.05344 | 3880 ft | 208 kts | 182° |
| 2026-05-03 23:12 | 33.11266 | -97.05364 | 3875 ft | 207 kts | 182° |
| 2026-05-03 23:12 | 33.09820 | -97.05374 | 3874 ft | 205 kts | 181° |
| 2026-05-03 23:13 | 33.08422 | -97.05378 | 3865 ft | 200 kts | 182° |
| 2026-05-03 23:13 | 33.07056 | -97.05386 | 3661 ft | 196 kts | 181° |
| 2026-05-03 23:13 | 33.05730 | -97.05393 | 3397 ft | 191 kts | 182° |
| 2026-05-03 23:13 | 33.04426 | -97.05399 | 3105 ft | 187 kts | 182° |
| 2026-05-03 23:14 | 33.03150 | -97.05407 | 2857 ft | 180 kts | 181° |
| 2026-05-03 23:14 | 33.01952 | -97.05412 | 2621 ft | 167 kts | 182° |
| 2026-05-03 23:14 | 33.00852 | -97.05418 | 2413 ft | 153 kts | 181° |
| 2026-05-03 23:14 | 32.99835 | -97.05423 | 2213 ft | 140 kts | 182° |
| 2026-05-03 23:15 | 32.98899 | -97.05427 | 2038 ft | 128 kts | 184° |
| 2026-05-03 23:15 | 32.98048 | -97.05432 | 1873 ft | 122 kts | 185° |
| 2026-05-03 23:15 | 32.97199 | -97.05438 | 1733 ft | 122 kts | 183° |
| 2026-05-03 23:15 | 32.96352 | -97.05443 | 1567 ft | 123 kts | 182° |
| 2026-05-03 23:16 | 32.95496 | -97.05449 | 1422 ft | 123 kts | 182° |
| 2026-05-03 23:16 | 32.94644 | -97.05449 | 1250 ft | 122 kts | 182° |
| 2026-05-03 23:16 | 32.93787 | -97.05453 | 1088 ft | 123 kts | 180° |
| 2026-05-03 23:16 | 32.92961 | -97.05457 | 942 ft | 123 kts | 180° |
| 2026-05-03 23:17 | 32.92092 | -97.05461 | 795 ft | 125 kts | 182° |
| 2026-05-03 23:17 | 32.91249 | -97.05468 | 643 ft | 125 kts | 182° |
| 2026-05-03 23:17 | 32.90426 | -97.05467 | 622 ft | 104 kts | 181° |
| 2026-05-03 23:17 | 32.89807 | -97.05475 | 624 ft | 75 kts | 180° |
| 2026-05-03 23:18 | 32.89381 | -97.05476 | 618 ft | 47 kts | 180° |
| 2026-05-03 23:18 | 32.89119 | -97.05477 | 603 ft | 34 kts | 180° |
| 2026-05-03 23:18 | 32.88897 | -97.05456 | 601 ft | 31 kts | 163° |
| 2026-05-03 23:18 | 32.88727 | -97.05357 | 598 ft | 14 kts | 150° |
| 2026-05-03 23:19 | 32.88643 | -97.05298 | 596 ft | 13 kts | 146° |
| 2026-05-03 23:19 | 32.88613 | -97.05221 | 593 ft | 9 kts | 99° |
| 2026-05-03 23:19 | 32.88607 | -97.05131 | 593 ft | 12 kts | 94° |
| 2026-05-03 23:19 | 32.88607 | -97.05034 | 595 ft | 12 kts | 88° |
| 2026-05-03 23:20 | 32.88615 | -97.04928 | 595 ft | 13 kts | 68° |
| 2026-05-03 23:20 | 32.88701 | -97.04893 | 594 ft | 15 kts | 1° |
| 2026-05-03 23:20 | 32.88820 | -97.04891 | 594 ft | 18 kts | 1° |
| 2026-05-03 23:20 | 32.88954 | -97.04888 | 596 ft | 20 kts | 1° |
| 2026-05-03 23:21 | 32.89100 | -97.04886 | 597 ft | 22 kts | 360° |
| 2026-05-03 23:21 | 32.89242 | -97.04887 | 599 ft | 12 kts | 0° |
| 2026-05-03 23:21 | 32.89325 | -97.04888 | 602 ft | 12 kts | 360° |
| 2026-05-03 23:21 | 32.89384 | -97.04882 | 603 ft | 7 kts | 23° |
| 2026-05-03 23:22 | 32.89419 | -97.04738 | 601 ft | 12 kts | 64° |
| 2026-05-03 23:22 | 32.89429 | -97.04675 | 603 ft | 10 kts | 88° |
| 2026-05-03 23:22 | 32.89427 | -97.04584 | 618 ft | 5 kts | 91° |
| 2026-05-03 23:23 | 32.89426 | -97.04535 | 604 ft | 7 kts | 90° |
| 2026-05-03 23:23 | 32.89426 | -97.04463 | 604 ft | 8 kts | 90° |
| 2026-05-03 23:23 | 32.89426 | -97.04426 | 610 ft | 3 kts | 90° |
| 2026-05-03 23:23 | 32.89432 | -97.04397 | 618 ft | 4 kts | 59° |
| 2026-05-03 23:24 | 32.89447 | -97.04386 | 621 ft | 4 kts | 25° |
| 2026-05-03 23:24 | 32.89485 | -97.04379 | 612 ft | 5 kts | 6° |
| 2026-05-03 23:24 | 32.89511 | -97.04377 | 612 ft | 2 kts | 3° |
| 2026-05-03 23:24 | 32.89512 | -97.04377 | 612 ft | 0 kts | 2° |